Terminal Aerodrome Forecast
Issued by NWS Wichita, KS

Home | Current Version | Previous Version | Text Only | Print | Product List | Glossary Off
Versions: 1 2 3 4 5 6 7 8 9 10 11 12 13 14 15 16 17 18 19 20 21 22 23 24 25 26 27

000
FTUS43 KICT 260320 AAB
TAFICT
TAF AMD
KICT 260320Z 2603/2624 VRB06KT P6SM -RA OVC090
      TEMPO 2603/2607 VRB15G20KT 5SM SHRA OVC050
     FM261000 19003KT 3SM BR SCT005 BKN200
     FM261700 22007KT P6SM SCT035
     FM262000 19008KT P6SM VCTS SCT040CB BKN070=

USA.gov is the U.S. government's official web portal to all federal, state and local government web resources and services.